Time;durP1;ratioP1;P1;durP2;ratioP2;P2;SDS_P1;SDS_P2;PMS_P1;PMS_P2;Temp;Humidity;BMP_temperature;BMP_pressure;BME280_temperature;BME280_humidity;BME280_pressure;Samples;Min_cycle;Max_cycle;Signal;HPM_P1;HPM_P2
2021/06/11 00:01:19;;;;;;;5.63;3.10;;;;;;;17.13;74.81;101196.53;4963485;28;20178;-74
2021/06/11 00:03:45;;;;;;;4.40;3.30;;;;;;;17.12;74.81;101196.63;4979403;28;20268;-74
2021/06/11 00:06:10;;;;;;;3.50;2.80;;;;;;;17.12;74.79;101200.19;4979927;28;20519;-74
2021/06/11 00:08:35;;;;;;;2.90;2.47;;;;;;;17.13;74.33;101198.34;4963459;28;20210;-74
2021/06/11 00:11:00;;;;;;;3.93;2.80;;;;;;;17.16;74.24;101196.28;4963518;28;20642;-73
2021/06/11 00:13:26;;;;;;;3.33;2.80;;;;;;;17.16;74.29;101195.44;4963233;28;20201;-74
2021/06/11 00:15:51;;;;;;;3.63;3.23;;;;;;;17.13;75.51;101201.91;4979084;28;20523;-73
2021/06/11 00:18:17;;;;;;;4.63;3.50;;;;;;;17.08;74.01;101198.66;4979863;28;20177;-74
2021/06/11 00:20:42;;;;;;;5.07;3.80;;;;;;;17.00;74.57;101197.53;4979385;28;20619;-74
2021/06/11 00:23:07;;;;;;;7.03;3.93;;;;;;;16.91;71.74;101195.50;4980044;28;20181;-75
2021/06/11 00:25:33;;;;;;;4.50;3.00;;;;;;;16.83;71.03;101204.16;4963778;28;20665;-76
2021/06/11 00:27:59;;;;;;;3.23;2.90;;;;;;;16.79;70.94;101200.84;4962812;28;20690;-74
2021/06/11 00:30:26;;;;;;;3.30;2.77;;;;;;;16.74;71.04;101202.16;4979160;28;20261;-74
2021/06/11 00:32:51;;;;;;;5.03;3.50;;;;;;;16.72;70.60;101196.84;4978878;28;20174;-74
2021/06/11 00:35:16;;;;;;;6.57;4.23;;;;;;;16.77;70.06;101193.84;4979086;28;20622;-74
2021/06/11 00:37:42;;;;;;;6.80;4.50;;;;;;;16.88;70.56;101189.38;4979093;28;20177;-75
2021/06/11 00:40:09;;;;;;;5.50;4.37;;;;;;;16.99;69.68;101185.88;4997076;28;20173;-74
2021/06/11 00:42:34;;;;;;;5.67;4.30;;;;;;;17.09;69.10;101189.59;4978932;28;20185;-73
2021/06/11 00:45:01;;;;;;;6.00;4.70;;;;;;;17.17;68.55;101184.53;4962850;28;20197;-74
2021/06/11 00:47:26;;;;;;;5.93;4.13;;;;;;;17.22;68.73;101197.66;4962591;28;20269;-74
2021/06/11 00:49:52;;;;;;;5.73;3.80;;;;;;;17.22;68.66;101186.00;4978851;28;20202;-74
2021/06/11 00:52:17;;;;;;;4.83;3.47;;;;;;;17.21;69.27;101192.38;4978807;28;20178;-74
2021/06/11 00:54:42;;;;;;;3.53;3.20;;;;;;;17.22;73.78;101194.97;4978759;28;20213;-74
2021/06/11 00:57:08;;;;;;;6.13;3.30;;;;;;;17.14;74.27;101198.25;4962219;28;20177;-73
2021/06/11 00:59:34;;;;;;;4.50;3.23;;;;;;;17.10;74.24;101198.59;4978493;28;20176;-73
2021/06/11 01:02:00;;;;;;;5.87;4.00;;;;;;;17.05;74.74;101187.25;4978353;28;20170;-74
2021/06/11 01:04:25;;;;;;;4.97;4.27;;;;;;;17.03;74.56;101191.91;4978421;28;20601;-74
2021/06/11 01:06:51;;;;;;;5.27;4.10;;;;;;;16.95;75.27;101187.09;4978480;28;20177;-74
2021/06/11 01:09:16;;;;;;;7.17;5.53;;;;;;;16.86;76.47;101185.94;4978237;28;20574;-74
2021/06/11 01:11:43;;;;;;;8.00;4.07;;;;;;;16.85;77.22;101183.34;4978575;28;20173;-74
2021/06/11 01:14:11;;;;;;;5.57;4.20;;;;;;;16.75;77.48;101183.16;4961731;28;20292;-74
2021/06/11 01:16:36;;;;;;;6.23;4.57;;;;;;;16.69;77.84;101185.44;4962020;28;20653;-73
2021/06/11 01:19:02;;;;;;;8.07;4.47;;;;;;;16.63;78.77;101183.16;4977834;28;20173;-74
2021/06/11 01:21:30;;;;;;;8.43;4.53;;;;;;;16.53;78.97;101181.13;4961855;28;20185;-74
2021/06/11 01:24:14;;;;;;;4.77;4.30;;;;;;;16.49;79.00;101182.31;4961860;28;20292;-74
2021/06/11 01:26:45;;;;;;;6.10;4.33;;;;;;;16.43;78.54;101177.38;4978587;28;20526;-74
2021/06/11 01:29:20;;;;;;;7.00;4.20;;;;;;;16.41;79.43;101194.63;4961478;28;20701;-74
2021/06/11 01:31:49;;;;;;;5.40;4.47;;;;;;;16.36;79.81;101194.09;4978000;28;20165;-74
2021/06/11 01:34:21;;;;;;;5.40;4.23;;;;;;;16.35;79.84;101190.50;4977581;28;20189;-74
2021/06/11 01:36:49;;;;;;;4.87;4.00;;;;;;;16.32;79.35;101179.97;4961325;28;20213;-74
2021/06/11 01:39:16;;;;;;;6.23;4.07;;;;;;;16.26;76.73;101185.78;4961264;28;20170;-74
2021/06/11 01:41:42;;;;;;;6.60;4.63;;;;;;;16.25;74.82;101178.69;4961372;28;20170;-74
2021/06/11 01:44:11;;;;;;;6.70;4.73;;;;;;;16.27;72.76;101179.44;4961183;28;20201;-73
2021/06/11 01:46:38;;;;;;;6.43;4.93;;;;;;;16.30;71.53;101187.28;4961324;28;20244;-73
2021/06/11 01:49:04;;;;;;;5.93;5.23;;;;;;;16.29;70.63;101180.19;4961472;28;20225;-75
2021/06/11 01:51:30;;;;;;;6.20;4.90;;;;;;;16.27;70.64;101176.75;4962073;28;20177;-73
2021/06/11 01:53:59;;;;;;;5.70;5.10;;;;;;;16.27;70.00;101174.03;4996001;23;20699;-67
2021/06/11 01:56:24;;;;;;;5.67;5.07;;;;;;;16.29;69.55;101176.63;5036533;28;20189;-67
2021/06/11 01:58:50;;;;;;;7.63;5.17;;;;;;;16.34;68.93;101182.53;5036225;28;20172;-68
2021/06/11 02:01:19;;;;;;;9.83;5.33;;;;;;;16.35;68.74;101176.19;5036054;28;20270;-68
2021/06/11 02:03:45;;;;;;;6.03;5.37;;;;;;;16.35;68.71;101182.44;5050554;28;20192;-68
2021/06/11 02:06:14;;;;;;;6.33;4.73;;;;;;;16.36;68.40;101181.50;5034003;28;20180;-67
2021/06/11 02:08:39;;;;;;;6.03;4.73;;;;;;;16.34;67.56;101178.03;5032781;28;20287;-68
2021/06/11 02:11:05;;;;;;;6.23;4.47;;;;;;;16.28;67.59;101175.78;5015928;28;20233;-67
2021/06/11 02:13:31;;;;;;;5.40;4.40;;;;;;;16.21;68.43;101185.25;5015934;28;20187;-68
2021/06/11 02:15:56;;;;;;;5.93;4.80;;;;;;;16.12;68.96;101180.53;5033837;28;20310;-67
2021/06/11 02:18:22;;;;;;;5.90;4.83;;;;;;;16.08;69.12;101179.03;5016472;28;20176;-67
2021/06/11 02:20:51;;;;;;;8.23;3.73;;;;;;;16.02;68.69;101183.00;5016424;28;20205;-68
2021/06/11 02:23:16;;;;;;;5.80;4.90;;;;;;;16.01;69.97;101172.34;5016109;28;20172;-68
2021/06/11 02:25:42;;;;;;;5.77;4.37;;;;;;;15.98;70.02;101177.94;5034301;28;20203;-67
2021/06/11 02:28:07;;;;;;;5.13;4.50;;;;;;;16.01;69.79;101180.44;5033851;28;20207;-67
2021/06/11 02:30:33;;;;;;;4.57;3.87;;;;;;;15.98;69.91;101178.78;5016297;28;20219;-67
2021/06/11 02:32:58;;;;;;;6.13;4.87;;;;;;;15.97;70.80;101174.38;5015637;28;20191;-68
2021/06/11 02:35:24;;;;;;;5.73;4.30;;;;;;;15.93;72.99;101184.50;5015314;28;20195;-68
2021/06/11 02:37:54;;;;;;;5.00;4.30;;;;;;;15.88;72.03;101180.41;5033290;28;20176;-68
2021/06/11 02:40:19;;;;;;;10.70;5.33;;;;;;;15.80;72.60;101177.41;5015806;28;20180;-68
2021/06/11 02:42:51;;;;;;;7.83;6.00;;;;;;;15.77;73.48;101175.78;5015665;28;20184;-68
2021/06/11 02:45:25;;;;;;;4.60;4.20;;;;;;;15.75;76.20;101177.72;5015446;28;20200;-68
2021/06/11 02:48:18;;;;;;;4.50;3.90;;;;;;;15.82;78.71;101176.31;5015451;28;20175;-68
2021/06/11 02:51:01;;;;;;;4.73;3.50;;;;;;;15.88;79.60;101181.25;4999297;28;20635;-68
2021/06/11 02:53:29;;;;;;;6.53;3.77;;;;;;;15.93;80.57;101184.50;5015523;28;20215;-68
2021/06/11 02:55:58;;;;;;;6.43;3.83;;;;;;;15.94;80.38;101185.34;5015670;28;20180;-68
2021/06/11 02:58:29;;;;;;;5.00;4.33;;;;;;;15.98;79.97;101184.16;4999137;28;20648;-68
2021/06/11 03:00:55;;;;;;;4.47;3.87;;;;;;;16.00;78.96;101179.56;5015806;28;20427;-68
2021/06/11 03:03:27;;;;;;;4.70;4.27;;;;;;;16.04;77.84;101188.28;5015623;28;20263;-69
2021/06/11 03:05:55;;;;;;;5.90;4.33;;;;;;;16.08;75.67;101182.59;5015512;28;20723;-68
2021/06/11 03:08:24;;;;;;;4.57;3.90;;;;;;;16.13;73.99;101190.34;5015861;28;20330;-68
2021/06/11 03:10:53;;;;;;;5.43;4.17;;;;;;;16.19;73.45;101187.19;5033180;28;20234;-68
2021/06/11 03:13:18;;;;;;;4.90;4.30;;;;;;;16.22;72.48;101184.28;4999565;28;20218;-68
2021/06/11 03:15:45;;;;;;;5.67;3.83;;;;;;;16.27;71.44;101196.44;5033277;28;20191;-68
2021/06/11 03:18:20;;;;;;;5.97;4.37;;;;;;;16.29;71.24;101188.25;5015791;28;20261;-68
2021/06/11 03:20:49;;;;;;;7.03;4.23;;;;;;;16.30;70.78;101192.69;5019396;28;20609;-68
2021/06/11 03:23:17;;;;;;;7.50;4.20;;;;;;;16.35;71.07;101190.50;5018873;28;20549;-68
2021/06/11 03:25:51;;;;;;;4.90;4.27;;;;;;;16.38;69.31;101182.25;5018644;28;20196;-68
2021/06/11 03:28:22;;;;;;;5.13;4.60;;;;;;;16.45;68.87;101180.81;5018628;28;20203;-68
2021/06/11 03:30:51;;;;;;;5.43;4.07;;;;;;;16.51;69.68;101179.53;5019015;28;20176;-68
2021/06/11 03:33:19;;;;;;;4.80;3.90;;;;;;;16.52;68.55;101179.41;5018748;28;20195;-68
2021/06/11 03:35:49;;;;;;;6.97;3.83;;;;;;;16.53;68.99;101175.75;5018685;28;20200;-69
2021/06/11 03:38:20;;;;;;;4.87;4.33;;;;;;;16.57;68.34;101174.53;5018861;28;20181;-68
2021/06/11 03:40:47;;;;;;;10.20;4.33;;;;;;;16.65;68.11;101181.19;5002666;28;20222;-68
2021/06/11 03:43:12;;;;;;;5.33;4.50;;;;;;;16.71;68.05;101180.78;5018746;28;20172;-68
2021/06/11 03:45:40;;;;;;;10.03;4.67;;;;;;;16.78;68.26;101184.78;5018493;28;20715;-68
2021/06/11 03:48:06;;;;;;;4.83;4.33;;;;;;;16.80;67.94;101175.59;5018688;28;20204;-68
2021/06/11 03:50:31;;;;;;;5.10;4.37;;;;;;;16.84;67.51;101176.22;5018597;28;20175;-67
2021/06/11 03:53:01;;;;;;;5.77;4.33;;;;;;;16.86;67.29;101179.69;5036300;28;20180;-67
2021/06/11 03:55:29;;;;;;;4.50;3.97;;;;;;;16.86;67.85;101172.44;5018244;28;20282;-68
2021/06/11 03:58:02;;;;;;;4.87;4.33;;;;;;;16.91;67.39;101176.63;5036265;28;20533;-67
2021/06/11 04:00:28;;;;;;;5.27;4.47;;;;;;;16.92;67.55;101173.81;5035987;28;20172;-67
2021/06/11 04:02:54;;;;;;;6.80;5.00;;;;;;;16.95;66.98;101179.00;5002104;28;20652;-67
2021/06/11 04:05:19;;;;;;;5.00;4.20;;;;;;;17.00;67.33;101181.34;5035933;28;20267;-67
2021/06/11 04:07:48;;;;;;;4.90;3.87;;;;;;;17.02;67.87;101179.38;5018564;28;20184;-68
2021/06/11 04:10:19;;;;;;;4.87;4.40;;;;;;;17.06;68.23;101180.88;5035995;28;20180;-67
2021/06/11 04:12:52;;;;;;;5.70;4.33;;;;;;;17.14;67.81;101181.19;5018276;28;20171;-67
2021/06/11 04:15:18;;;;;;;5.33;4.00;;;;;;;17.15;66.91;101177.53;5036056;28;20196;-68
2021/06/11 04:17:47;;;;;;;8.60;4.83;;;;;;;17.16;66.73;101181.94;5001842;28;20184;-68
2021/06/11 04:20:21;;;;;;;5.53;4.27;;;;;;;17.19;67.21;101177.19;5001947;28;20180;-68
2021/06/11 04:22:49;;;;;;;5.57;4.97;;;;;;;17.21;66.70;101178.91;5036534;28;20180;-67
2021/06/11 04:25:16;;;;;;;5.83;5.10;;;;;;;17.22;67.20;101186.00;5017881;28;20200;-67
2021/06/11 04:27:42;;;;;;;16.30;11.43;;;;;;;17.22;67.14;101183.31;5035461;28;20207;-67
2021/06/11 04:30:09;;;;;;;9.77;8.23;;;;;;;17.21;66.07;101182.44;5017688;28;20212;-67
2021/06/11 04:32:34;;;;;;;11.13;9.23;;;;;;;17.25;66.56;101183.06;5017111;28;20664;-67
2021/06/11 04:35:00;;;;;;;7.40;6.63;;;;;;;17.28;66.57;101182.84;5035342;28;20668;-67
2021/06/11 04:37:25;;;;;;;7.40;5.90;;;;;;;17.26;67.33;101185.66;5035759;28;20184;-67
2021/06/11 04:39:50;;;;;;;7.87;6.47;;;;;;;17.27;67.09;101189.22;5035510;28;20199;-67
2021/06/11 04:42:16;;;;;;;7.50;5.83;;;;;;;17.24;67.85;101182.22;5035980;28;20187;-67
2021/06/11 04:44:41;;;;;;;5.63;5.10;;;;;;;17.17;67.70;101179.13;5035358;28;20261;-67
2021/06/11 04:47:06;;;;;;;5.80;5.03;;;;;;;17.06;67.21;101184.44;5036119;28;20184;-66
2021/06/11 04:49:32;;;;;;;5.53;5.00;;;;;;;16.99;67.19;101180.47;5017759;28;20667;-66
2021/06/11 04:51:57;;;;;;;6.03;5.10;;;;;;;16.84;68.65;101179.78;5017461;28;20250;-67
2021/06/11 04:54:22;;;;;;;6.60;5.13;;;;;;;16.84;69.19;101181.63;5034850;28;20599;-68
2021/06/11 04:56:48;;;;;;;7.90;5.03;;;;;;;16.73;69.42;101185.13;5034813;28;20633;-67
2021/06/11 04:59:13;;;;;;;7.90;5.03;;;;;;;16.79;68.23;101175.72;5034760;28;20175;-66
2021/06/11 05:01:38;;;;;;;5.60;5.00;;;;;;;16.94;67.64;101179.09;5035150;28;20184;-66
2021/06/11 05:04:04;;;;;;;7.33;6.33;;;;;;;16.79;68.39;101176.56;5034650;28;20657;-66
2021/06/11 05:06:29;;;;;;;7.80;5.87;;;;;;;17.07;66.66;101185.28;5016911;28;20195;-66
2021/06/11 05:08:54;;;;;;;5.77;4.37;;;;;;;17.30;66.70;101178.19;5034938;28;20251;-67
2021/06/11 05:11:20;;;;;;;6.53;3.70;;;;;;;17.50;65.92;101181.13;5035111;28;20180;-68
2021/06/11 05:13:45;;;;;;;6.30;4.30;;;;;;;17.70;65.58;101181.44;5034504;28;20560;-64
2021/06/11 05:16:10;;;;;;;6.00;4.10;;;;;;;17.91;65.10;101178.94;5034370;28;20180;-62
2021/06/11 05:18:36;;;;;;;6.57;5.03;;;;;;;18.00;64.13;101178.19;5034841;28;20226;-63
2021/06/11 05:21:02;;;;;;;5.63;3.60;;;;;;;18.23;63.84;101187.19;5017847;28;20203;-65
2021/06/11 05:23:27;;;;;;;5.07;4.20;;;;;;;18.42;62.73;101182.03;5017829;28;20600;-64
2021/06/11 05:25:52;;;;;;;7.57;4.40;;;;;;;18.64;62.09;101178.50;5035005;28;20183;-63
2021/06/11 05:28:22;;;;;;;5.10;4.60;;;;;;;18.76;60.71;101176.63;5034431;28;20200;-63
2021/06/11 05:30:48;;;;;;;6.73;4.90;;;;;;;18.93;59.86;101170.69;5034753;28;20179;-62
2021/06/11 05:33:14;;;;;;;5.40;4.47;;;;;;;18.72;60.36;101174.19;5034586;28;20219;-62
2021/06/11 05:35:39;;;;;;;5.93;3.83;;;;;;;18.94;59.82;101167.84;5018184;28;20193;-63
2021/06/11 05:38:05;;;;;;;4.97;3.57;;;;;;;19.22;59.42;101163.72;5007733;28;20544;-64
2021/06/11 05:40:32;;;;;;;6.13;3.83;;;;;;;19.45;58.74;101161.78;5019373;28;20195;-64
2021/06/11 05:42:57;;;;;;;5.93;3.87;;;;;;;19.65;58.15;101166.38;5035053;28;20173;-62
2021/06/11 05:45:22;;;;;;;14.77;5.70;;;;;;;19.71;58.09;101164.16;5016399;28;20212;-62
2021/06/11 05:47:48;;;;;;;8.17;5.00;;;;;;;19.83;57.22;101163.94;5034109;28;20180;-64
2021/06/11 05:50:13;;;;;;;8.83;5.13;;;;;;;19.92;56.66;101162.28;5034084;28;20540;-71
2021/06/11 05:52:38;;;;;;;10.27;5.93;;;;;;;19.84;57.64;101165.66;5034394;28;20254;-72
2021/06/11 05:55:04;;;;;;;10.87;5.20;;;;;;;20.13;56.55;101162.28;5016182;28;20208;-71
2021/06/11 05:57:31;;;;;;;5.27;4.00;;;;;;;20.29;56.34;101160.78;5016628;28;20181;-71
2021/06/11 05:59:57;;;;;;;13.70;4.87;;;;;;;20.57;55.72;101164.63;5017677;28;20536;-73
2021/06/11 06:02:22;;;;;;;6.07;4.20;;;;;;;20.72;55.74;101166.94;5001499;28;20657;-71
2021/06/11 06:04:48;;;;;;;7.03;3.90;;;;;;;20.65;56.12;101169.38;5000545;28;20250;-71
2021/06/11 06:07:13;;;;;;;6.23;3.60;;;;;;;20.81;55.60;101161.56;5034391;28;20178;-70
2021/06/11 06:09:39;;;;;;;8.80;4.97;;;;;;;20.88;55.37;101156.44;5017185;28;20196;-70
2021/06/11 06:12:05;;;;;;;6.70;4.90;;;;;;;20.70;55.52;101167.09;5019249;28;20180;-71
2021/06/11 06:14:30;;;;;;;4.83;4.33;;;;;;;20.85;55.07;101160.31;5019473;28;20215;-71
2021/06/11 06:16:56;;;;;;;6.70;3.93;;;;;;;20.82;56.43;101162.44;4999903;28;20548;-70
2021/06/11 06:19:21;;;;;;;5.57;4.23;;;;;;;21.00;55.39;101157.16;5033832;28;20191;-71
2021/06/11 06:21:46;;;;;;;5.13;4.40;;;;;;;21.04;54.30;101161.31;5016174;28;20616;-70
2021/06/11 06:24:11;;;;;;;4.43;3.90;;;;;;;20.87;54.37;101147.44;5033371;28;20227;-70
2021/06/11 06:26:37;;;;;;;6.63;4.07;;;;;;;20.81;53.40;101150.72;5015942;28;20182;-70
2021/06/11 06:29:03;;;;;;;5.70;3.77;;;;;;;20.98;53.29;101156.47;5033313;28;20603;-70
2021/06/11 06:31:28;;;;;;;5.53;4.43;;;;;;;21.08;53.73;101151.88;5015980;28;20173;-70
2021/06/11 06:33:53;;;;;;;5.83;4.00;;;;;;;20.90;55.04;101155.31;5033516;28;20203;-70
2021/06/11 06:36:18;;;;;;;5.77;4.47;;;;;;;21.05;54.52;101154.88;5033557;28;20173;-70
2021/06/11 06:38:45;;;;;;;6.83;5.17;;;;;;;20.89;54.29;101155.44;5015812;28;20183;-71
2021/06/11 06:41:10;;;;;;;7.37;4.80;;;;;;;20.74;55.12;101154.97;5015676;28;20176;-71
2021/06/11 06:43:36;;;;;;;8.70;4.13;;;;;;;20.73;55.65;101163.25;4999135;28;20176;-70
2021/06/11 06:46:01;;;;;;;7.47;5.20;;;;;;;20.60;56.33;101164.34;5033904;28;20233;-70
2021/06/11 06:48:27;;;;;;;8.67;5.37;;;;;;;20.61;56.37;101154.38;5015488;28;20664;-70
2021/06/11 06:50:56;;;;;;;9.80;5.60;;;;;;;20.73;55.93;101153.25;5015879;28;20644;-71
2021/06/11 06:53:22;;;;;;;5.93;5.03;;;;;;;20.73;56.24;101155.97;5015710;28;20259;-71
2021/06/11 06:55:47;;;;;;;4.60;3.77;;;;;;;20.70;56.38;101161.66;5039393;28;20239;-71
2021/06/11 06:58:12;;;;;;;9.33;5.13;;;;;;;20.78;56.69;101155.53;5022395;28;20250;-71
2021/06/11 07:00:38;;;;;;;8.30;5.20;;;;;;;20.76;55.78;101150.25;5022265;28;20168;-71
2021/06/11 07:03:03;;;;;;;6.83;5.97;;;;;;;20.59;55.62;101153.66;5039791;28;20168;-71
2021/06/11 07:05:29;;;;;;;5.27;4.77;;;;;;;20.60;55.42;101149.94;5039641;28;20215;-71
2021/06/11 07:07:54;;;;;;;7.10;5.57;;;;;;;20.67;55.30;101152.94;5022073;28;20187;-71
2021/06/11 07:10:20;;;;;;;7.00;4.40;;;;;;;20.69;55.36;101154.53;5039567;28;20171;-71
2021/06/11 07:12:45;;;;;;;5.20;4.30;;;;;;;20.72;54.92;101139.84;5039465;28;20172;-71
2021/06/11 07:15:11;;;;;;;7.73;5.87;;;;;;;20.78;54.14;101150.97;5005295;28;20345;-71
2021/06/11 07:17:39;;;;;;;6.47;4.70;;;;;;;20.82;54.15;101143.44;5021742;28;20612;-71
2021/06/11 07:20:05;;;;;;;7.43;5.43;;;;;;;20.82;54.00;101144.31;5021868;28;20168;-71
2021/06/11 07:22:31;;;;;;;6.27;5.40;;;;;;;20.85;53.58;101148.59;5021403;28;20187;-71
2021/06/11 07:24:56;;;;;;;6.17;4.23;;;;;;;20.86;53.32;101140.31;5021877;28;20188;-70
2021/06/11 07:27:21;;;;;;;6.90;5.53;;;;;;;20.90;53.96;101141.75;5021570;28;20200;-71
2021/06/11 07:29:48;;;;;;;7.73;5.30;;;;;;;21.04;53.15;101145.88;5039002;28;20246;-71
2021/06/11 07:32:15;;;;;;;8.20;5.10;;;;;;;21.07;52.49;101139.31;5039108;28;20165;-71
2021/06/11 07:34:40;;;;;;;6.93;4.17;;;;;;;21.17;53.31;101146.47;5021180;28;20279;-71
2021/06/11 07:37:06;;;;;;;4.73;4.13;;;;;;;21.27;53.00;101140.25;5021421;28;20255;-71
2021/06/11 07:39:32;;;;;;;8.23;4.23;;;;;;;21.29;53.08;101147.25;5039574;28;20243;-71
2021/06/11 07:41:57;;;;;;;5.27;4.10;;;;;;;21.35;53.40;101146.66;5022137;28;20173;-70
2021/06/11 07:44:23;;;;;;;5.13;3.80;;;;;;;21.47;53.11;101148.22;5038853;28;20688;-71
2021/06/11 07:46:48;;;;;;;6.77;4.53;;;;;;;21.54;52.58;101143.91;5021513;28;20568;-71
2021/06/11 07:49:14;;;;;;;6.00;5.13;;;;;;;21.56;52.24;101142.91;5004835;28;20669;-71
2021/06/11 07:51:40;;;;;;;8.20;4.83;;;;;;;21.47;52.99;101147.38;5021518;28;20667;-71
2021/06/11 07:54:06;;;;;;;5.77;4.40;;;;;;;21.61;52.30;101148.81;5041732;22;20212;-68
2021/06/11 07:56:32;;;;;;;6.17;4.20;;;;;;;21.55;52.99;101144.78;5002152;28;20253;-68
2021/06/11 07:58:57;;;;;;;5.40;3.80;;;;;;;21.68;52.70;101147.22;5019455;28;20308;-68
2021/06/11 08:01:24;;;;;;;6.90;4.93;;;;;;;21.75;51.28;101153.78;5019640;28;20180;-68
2021/06/11 08:03:50;;;;;;;5.50;4.07;;;;;;;21.64;51.66;101154.78;5019373;28;20226;-68
2021/06/11 08:06:15;;;;;;;5.17;4.20;;;;;;;21.53;53.31;101144.91;5016321;28;20201;-68
2021/06/11 08:08:40;;;;;;;3.73;2.93;;;;;;;21.72;52.94;101154.91;5016252;28;20200;-68
2021/06/11 08:11:05;;;;;;;4.63;3.67;;;;;;;21.97;51.01;101149.88;4998952;28;20185;-68
2021/06/11 08:13:31;;;;;;;7.43;3.47;;;;;;;21.99;50.96;101146.00;5016389;28;20204;-68
2021/06/11 08:15:56;;;;;;;5.67;3.10;;;;;;;22.02;50.57;101153.00;5016497;28;20276;-68
2021/06/11 08:18:22;;;;;;;5.03;3.20;;;;;;;22.11;49.75;101153.00;5015817;28;20246;-69
2021/06/11 08:20:47;;;;;;;5.23;2.70;;;;;;;22.05;49.86;101148.16;5016053;28;20169;-68
2021/06/11 08:23:12;;;;;;;4.13;3.00;;;;;;;21.81;51.22;101142.31;5015615;28;20177;-68
2021/06/11 08:25:38;;;;;;;4.73;2.50;;;;;;;22.19;50.13;101143.25;4997966;28;20196;-68
2021/06/11 08:28:03;;;;;;;4.83;2.97;;;;;;;22.34;50.07;101137.19;4997945;28;20185;-68
2021/06/11 08:30:29;;;;;;;4.50;3.80;;;;;;;22.41;49.46;101146.47;4998186;28;20176;-68
2021/06/11 08:32:56;;;;;;;8.43;3.37;;;;;;;22.58;49.12;101150.22;5015643;28;20639;-68
2021/06/11 08:35:22;;;;;;;5.40;3.37;;;;;;;22.57;49.05;101136.78;4998059;28;20279;-68
2021/06/11 08:37:47;;;;;;;8.97;3.20;;;;;;;22.60;49.41;101142.75;5015444;28;20295;-68
2021/06/11 08:40:14;;;;;;;7.77;3.77;;;;;;;22.76;48.84;101134.81;5015943;28;20227;-67
2021/06/11 08:42:39;;;;;;;4.00;3.60;;;;;;;22.84;48.67;101138.66;4997963;28;20191;-67
2021/06/11 08:45:09;;;;;;;6.03;3.67;;;;;;;22.81;47.79;101145.28;5014825;28;20201;-68
2021/06/11 08:47:34;;;;;;;4.20;3.50;;;;;;;22.66;48.12;101144.88;4997552;28;20267;-68
2021/06/11 08:50:01;;;;;;;2.77;2.50;;;;;;;22.84;48.17;101144.09;5015749;28;20199;-69
2021/06/11 08:52:27;;;;;;;3.70;2.60;;;;;;;23.00;47.91;101136.97;5015888;28;20239;-69
2021/06/11 08:54:54;;;;;;;3.43;2.93;;;;;;;23.12;47.79;101142.22;5014867;28;20207;-68
2021/06/11 08:57:21;;;;;;;3.53;2.80;;;;;;;23.05;47.92;101153.72;5014895;28;20216;-68
2021/06/11 08:59:47;;;;;;;6.77;4.00;;;;;;;23.33;46.29;101150.91;5015294;28;20176;-68
2021/06/11 09:02:13;;;;;;;10.73;3.30;;;;;;;23.32;47.56;101150.03;4997855;28;20534;-68
2021/06/11 09:04:39;;;;;;;4.03;2.90;;;;;;;23.45;47.31;101154.25;5014932;28;20197;-68
2021/06/11 09:07:19;;;;;;;3.23;2.50;;;;;;;23.62;45.83;101145.25;5015103;28;20585;-68
2021/06/11 09:09:49;;;;;;;4.83;2.90;;;;;;;23.75;45.81;101144.81;4997512;28;20669;-68
2021/06/11 09:12:37;;;;;;;2.93;2.57;;;;;;;23.62;46.18;101150.69;5014879;28;20177;-68
2021/06/11 09:15:10;;;;;;;5.50;2.77;;;;;;;23.68;46.61;101147.31;5015630;28;20284;-69
2021/06/11 09:17:37;;;;;;;3.93;3.47;;;;;;;23.51;46.15;101140.00;5016528;28;20166;-69
2021/06/11 09:20:07;;;;;;;3.93;3.40;;;;;;;23.43;46.15;101140.81;5014705;28;20538;-68
2021/06/11 09:22:46;;;;;;;3.83;3.13;;;;;;;23.22;46.42;101138.38;5014815;28;20474;-68
2021/06/11 09:25:22;;;;;;;6.67;5.03;;;;;;;23.50;46.29;101141.03;5014925;28;20243;-69
2021/06/11 09:27:52;;;;;;;7.83;4.97;;;;;;;23.72;44.57;101150.59;5014615;28;20252;-69
2021/06/11 09:30:18;;;;;;;7.07;5.97;;;;;;;23.77;43.80;101159.13;4996999;28;20685;-68
2021/06/11 09:32:55;;;;;;;8.43;6.03;;;;;;;23.78;43.66;101142.63;4997025;28;20188;-68
2021/06/11 09:35:27;;;;;;;6.67;5.20;;;;;;;23.84;43.32;101138.44;5014755;28;20195;-69
2021/06/11 09:38:25;;;;;;;4.97;4.47;;;;;;;23.78;43.23;101142.63;5014911;28;20232;-68
2021/06/11 09:40:57;;;;;;;4.73;3.37;;;;;;;23.81;44.36;101138.75;5014040;28;20601;-69
2021/06/11 09:43:22;;;;;;;6.77;3.60;;;;;;;23.68;44.56;101140.00;5014204;28;20173;-68
2021/06/11 09:46:09;;;;;;;3.77;3.00;;;;;;;24.10;43.80;101138.41;5014822;28;20193;-67
2021/06/11 09:48:46;;;;;;;5.97;2.90;;;;;;;24.19;43.70;101138.31;4999151;28;20606;-69
2021/06/11 09:51:32;;;;;;;8.27;3.20;;;;;;;23.96;43.10;101138.00;4999498;28;20201;-68
2021/06/11 09:54:00;;;;;;;5.27;3.70;;;;;;;23.93;41.00;101127.41;5018405;28;20657;-68
2021/06/11 09:56:27;;;;;;;8.43;4.20;;;;;;;24.11;40.28;101138.25;5020199;28;20192;-69
2021/06/11 09:58:55;;;;;;;5.50;4.00;;;;;;;24.07;38.30;101134.13;4999590;28;20165;-70
2021/06/11 10:01:21;;;;;;;7.80;3.57;;;;;;;23.71;41.04;101122.47;5020774;28;20180;-69
2021/06/11 10:03:49;;;;;;;4.07;3.20;;;;;;;24.19;39.77;101116.50;5003198;28;20173;-69
2021/06/11 10:06:16;;;;;;;8.63;4.93;;;;;;;24.34;39.71;101114.03;5000201;28;20192;-70
2021/06/11 10:08:43;;;;;;;3.67;3.10;;;;;;;24.33;39.80;101116.94;4995706;28;20192;-68
2021/06/11 10:11:11;;;;;;;4.17;2.87;;;;;;;24.50;40.36;101119.53;4996032;28;20192;-69
2021/06/11 10:13:37;;;;;;;5.97;5.10;;;;;;;24.71;38.77;101121.00;5013241;28;20633;-69
2021/06/11 10:16:05;;;;;;;3.30;2.97;;;;;;;24.68;39.46;101110.41;4995644;28;20189;-70
2021/06/11 10:18:30;;;;;;;2.53;2.30;;;;;;;24.80;39.72;101118.13;5013296;28;20175;-68
2021/06/11 10:20:58;;;;;;;3.53;1.90;;;;;;;24.82;39.75;101115.22;4995841;28;20594;-69
2021/06/11 10:23:24;;;;;;;5.93;3.83;;;;;;;25.37;37.90;101115.53;5013270;28;20580;-69
2021/06/11 10:25:56;;;;;;;2.97;2.30;;;;;;;25.41;36.00;101129.69;4996226;28;20284;-69
2021/06/11 10:28:25;;;;;;;2.47;2.10;;;;;;;25.35;36.13;101124.91;4996302;28;20181;-69
2021/06/11 10:31:04;;;;;;;2.63;2.10;;;;;;;25.54;35.22;101125.41;4997154;28;20173;-69
2021/06/11 10:33:50;;;;;;;4.73;2.10;;;;;;;25.80;35.07;101116.22;4996119;28;20153;-69
2021/06/11 10:36:32;;;;;;;5.13;2.00;;;;;;;25.77;35.35;101114.69;4996254;28;20280;-70
2021/06/11 10:39:00;;;;;;;2.97;2.10;;;;;;;26.07;35.40;101117.69;5013209;28;20177;-69
2021/06/11 10:41:26;;;;;;;2.97;1.90;;;;;;;26.08;34.21;101119.41;4995463;28;20179;-69
2021/06/11 10:43:52;;;;;;;5.20;3.70;;;;;;;26.30;33.83;101104.94;5012837;28;20173;-70
2021/06/11 10:46:23;;;;;;;4.87;1.90;;;;;;;26.48;34.22;101108.34;4995114;28;20207;-70
2021/06/11 10:48:55;;;;;;;4.13;2.70;;;;;;;26.62;33.40;101106.72;4979463;28;20193;-71
2021/06/11 10:51:40;;;;;;;2.23;1.90;;;;;;;26.81;33.68;101099.97;4995476;28;20183;-69
2021/06/11 10:54:15;;;;;;;2.33;1.73;;;;;;;26.94;34.81;101105.69;4618187;28;15043308;-70
2021/06/11 10:56:55;;;;;;;2.20;1.90;;;;;;;26.90;34.49;101107.09;4975291;28;20856;-69
2021/06/11 10:59:37;;;;;;;2.27;1.80;;;;;;;26.86;34.49;101110.38;5013517;28;20708;-68
2021/06/11 11:02:04;;;;;;;5.40;1.90;;;;;;;27.13;32.50;101111.75;5013597;28;20173;-69
2021/06/11 11:04:32;;;;;;;2.63;1.90;;;;;;;29.31;29.57;101121.28;4995936;28;20641;-69
2021/06/11 11:06:57;;;;;;;4.07;1.67;;;;;;;30.36;26.65;101114.97;5013794;28;20165;-69
2021/06/11 11:09:52;;;;;;;2.47;1.70;;;;;;;32.09;23.58;101115.13;5013507;28;20201;-68
2021/06/11 11:12:17;;;;;;;1.98;1.30;;;;;;;32.75;23.10;101111.34;4995684;28;20231;-68
2021/06/11 11:14:42;;;;;;;1.42;1.33;;;;;;;34.36;21.51;101120.78;4995490;28;20201;-70
2021/06/11 11:17:10;;;;;;;5.05;2.95;;;;;;;35.43;20.94;101121.06;5012995;28;20177;-69
2021/06/11 11:19:55;;;;;;;3.53;1.63;;;;;;;35.96;18.73;101117.38;4979414;28;20183;-70
2021/06/11 11:22:29;;;;;;;2.45;1.15;;;;;;;35.27;20.14;101108.66;5013081;28;20169;-70
2021/06/11 11:24:56;;;;;;;4.45;2.10;;;;;;;34.89;20.69;101120.13;5013034;28;20204;-69
2021/06/11 11:27:22;;;;;;;1.92;1.33;;;;;;;35.22;19.01;101110.47;4995671;28;20546;-69